| time (UTC) | temp F | wind direction | speed MPH | gust MPH | rain 1hr in | rain 24hr in | rain mn in | humidity % | barometer mb |
| 20260505153048 | 55 | 183 | 1.0 | 0.0 | 0.00 | 0.00 | 0.00 | 74 | 1015.4 |
| 20260505152035 | 55 | 162 | 1.0 | 0.0 | 0.00 | 0.00 | 0.00 | 74 | 1015.0 |
| 20260505151039 | 55 | 169 | 1.0 | 0.0 | 0.00 | 0.00 | 0.00 | 74 | 1015.0 |
| 20260505125041 | 53 | 139 | 1.0 | 0.0 | 0.00 | 0.00 | 0.00 | 77 | 1013.8 |
| 20260505124042 | 53 | 137 | 1.0 | 0.0 | 0.00 | 0.00 | 0.00 | 78 | 1013.8 |
| 20260505123050 | 53 | 195 | 1.0 | 0.0 | 0.00 | 0.00 | 0.00 | 78 | 1013.7 |
| 20260505122104 | 52 | 200 | 0.0 | 0.0 | 0.00 | 0.00 | 0.00 | 78 | 1013.5 |
| 20260505121038 | 52 | 187 | 0.0 | 0.0 | 0.00 | 0.00 | 0.00 | 78 | 1013.5 |
| 20260505115043 | 52 | 233 | 1.0 | 0.0 | 0.00 | 0.00 | 0.00 | 78 | 1013.4 |
| 20260505114034 | 52 | 272 | 1.0 | 0.0 | 0.00 | 0.00 | 0.00 | 78 | 1013.4 |
| 20260505113047 | 52 | 293 | 1.0 | 0.0 | 0.00 | 0.00 | 0.00 | 78 | 1013.3 |
| 20260505112036 | 52 | 337 | 1.0 | 0.0 | 0.00 | 0.00 | 0.00 | 78 | 1013.3 |
| 20260505111045 | 52 | 239 | 1.0 | 0.0 | 0.00 | 0.00 | 0.00 | 78 | 1013.3 |
| 20260505102055 | 53 | 291 | 1.0 | 0.0 | 0.00 | 0.00 | 0.00 | 78 | 1012.8 |
| 20260505101032 | 53 | 207 | 0.0 | 0.0 | 0.00 | 0.00 | 0.00 | 78 | 1012.8 |
| 20260505100114 | 53 | 157 | 1.0 | 0.0 | 0.00 | 0.00 | 0.00 | 78 | 1012.7 |
| 20260505095038 | 53 | 205 | 1.0 | 0.0 | 0.00 | 0.00 | 0.00 | 79 | 1012.5 |
| 20260505094043 | 54 | 229 | 1.0 | 0.0 | 0.00 | 0.00 | 0.00 | 79 | 1012.5 |
| 20260505093050 | 54 | 229 | 1.0 | 0.0 | 0.00 | 0.00 | 0.00 | 79 | 1012.4 |
| 20260505092040 | 54 | 129 | 1.0 | 0.0 | 0.00 | 0.00 | 0.00 | 79 | 1012.3 |
| 20260505091052 | 54 | 219 | 1.0 | 0.0 | 0.00 | 0.00 | 0.00 | 79 | 1012.3 |
| 20260505090043 | 55 | 180 | 1.0 | 0.0 | 0.00 | 0.00 | 0.00 | 79 | 1012.3 |
| 20260505085050 | 55 | 191 | 1.0 | 0.0 | 0.00 | 0.00 | 0.00 | 79 | 1012.3 |
| 20260505084041 | 55 | 236 | 1.0 | 0.0 | 0.00 | 0.00 | 0.00 | 78 | 1012.3 |
| 20260505083034 | 55 | 226 | 1.0 | 0.0 | 0.00 | 0.00 | 0.00 | 79 | 1012.1 |
| 20260505082046 | 55 | 205 | 2.0 | 0.0 | 0.00 | 0.00 | 0.00 | 78 | 1011.9 |
| 20260505081040 | 56 | 255 | 2.0 | 0.0 | 0.00 | 0.00 | 0.00 | 78 | 1011.9 |
| 20260505080052 | 56 | 230 | 1.0 | 0.0 | 0.00 | 0.00 | 0.00 | 78 | 1011.8 |
| 20260505075043 | 56 | 293 | 1.0 | 0.0 | 0.00 | 0.00 | 0.00 | 78 | 1011.8 |
| 20260505074030 | 57 | 209 | 2.0 | 0.0 | 0.00 | 0.00 | 0.00 | 77 | 1011.8 |
| 20260505073051 | 57 | 150 | 1.0 | 0.0 | 0.00 | 0.00 | 0.00 | 77 | 1011.7 |
| 20260505072109 | 57 | 222 | 2.0 | 0.0 | 0.00 | 0.00 | 0.00 | 77 | 1011.3 |
| 20260505071251 | 58 | 226 | 2.0 | 0.0 | 0.00 | 0.00 | 0.00 | 76 | 1011.4 |
| 20260505070320 | 58 | 334 | 1.0 | 0.0 | 0.00 | 0.00 | 0.00 | 76 | 1011.2 |
| 20260505063437 | 60 | 262 | 2.0 | 0.0 | 0.00 | 0.00 | 0.00 | 74 | 1011.0 |
| 20260505031047 | 72 | 45 | 0.0 | 0.0 | 0.00 | 0.00 | 0.00 | 52 | 1009.3 |
| 20260505030043 | 73 | 214 | 0.0 | 0.0 | 0.00 | 0.00 | 0.00 | 50 | 1009.0 |
| 20260505025031 | 74 | 214 | 1.0 | 0.0 | 0.00 | 0.00 | 0.00 | 48 | 1008.9 |
| 20260505024051 | 75 | 211 | 1.0 | 0.0 | 0.00 | 0.00 | 0.00 | 47 | 1008.9 |
| 20260505023034 | 75 | 207 | 1.0 | 0.0 | 0.00 | 0.00 | 0.00 | 45 | 1008.9 |
| 20260505022037 | 76 | 224 | 1.0 | 0.0 | 0.00 | 0.00 | 0.00 | 45 | 1009.1 |
| 20260505021032 | 76 | 261 | 1.0 | 0.0 | 0.00 | 0.00 | 0.00 | 45 | 1009.1 |
| 20260505020108 | 76 | 231 | 1.0 | 0.0 | 0.00 | 0.00 | 0.00 | 44 | 1008.9 |
| 20260505015040 | 77 | 304 | 1.0 | 0.0 | 0.00 | 0.00 | 0.00 | 44 | 1009.0 |
| 20260505013055 | 77 | 125 | 2.0 | 0.0 | 0.00 | 0.00 | 0.00 | 41 | 1009.0 |
| 20260505012046 | 78 | 221 | 1.0 | 0.0 | 0.00 | 0.00 | 0.00 | 41 | 1009.2 |
| 20260505011032 | 78 | 134 | 2.0 | 0.0 | 0.00 | 0.00 | 0.00 | 40 | 1009.2 |
| 20260505010059 | 78 | 236 | 1.0 | 0.0 | 0.00 | 0.00 | 0.00 | 40 | 1009.1 |
| 20260505005053 | 78 | 263 | 2.0 | 0.0 | 0.00 | 0.00 | 0.00 | 40 | 1009.1 |
| 20260505004043 | 79 | 271 | 1.0 | 0.0 | 0.00 | 0.00 | 0.00 | 39 | 1009.1 |
| 20260505003103 | 80 | 340 | 2.0 | 0.0 | 0.00 | 0.00 | 0.00 | 38 | 1009.1 |
| 20260505002048 | 80 | 349 | 2.0 | 0.0 | 0.00 | 0.00 | 0.00 | 38 | 1009.2 |
| 20260505001050 | 80 | 293 | 2.0 | 0.0 | 0.00 | 0.00 | 0.00 | 37 | 1009.2 |
| 20260505000040 | 80 | 265 | 2.0 | 0.0 | 0.00 | 0.00 | 0.00 | 37 | 1009.3 |
| 20260504235048 | 80 | 204 | 2.0 | 0.0 | 0.00 | 0.00 | 0.00 | 37 | 1009.5 |
| 20260504234043 | 80 | 296 | 2.0 | 0.0 | 0.00 | 0.00 | 0.00 | 38 | 1009.5 |
| 20260504233043 | 81 | 239 | 2.0 | 0.0 | 0.00 | 0.00 | 0.00 | 36 | 1009.5 |
| 20260504232045 | 81 | 17 | 2.0 | 0.0 | 0.00 | 0.00 | 0.00 | 37 | 1009.5 |
| 20260504231035 | 81 | 250 | 2.0 | 0.0 | 0.00 | 0.00 | 0.00 | 38 | 1009.5 |
| 20260504230054 | 80 | 357 | 2.0 | 0.0 | 0.00 | 0.00 | 0.00 | 37 | 1009.6 |
| 20260504225043 | 81 | 352 | 3.0 | 0.0 | 0.00 | 0.00 | 0.00 | 38 | 1009.6 |
| 20260504224042 | 81 | 342 | 3.0 | 0.0 | 0.00 | 0.00 | 0.00 | 37 | 1009.6 |
| 20260504223103 | 81 | 234 | 3.0 | 0.0 | 0.00 | 0.00 | 0.00 | 36 | 1010.0 |
| 20260504222053 | 81 | 229 | 3.0 | 0.0 | 0.00 | 0.00 | 0.00 | 36 | 1010.1 |
| 20260504221043 | 82 | 323 | 2.0 | 0.0 | 0.00 | 0.00 | 0.00 | 35 | 1010.1 |
| 20260504220054 | 81 | 76 | 3.0 | 0.0 | 0.00 | 0.00 | 0.00 | 37 | 1010.2 |
| 20260504215041 | 81 | 294 | 2.0 | 0.0 | 0.00 | 0.00 | 0.00 | 39 | 1010.1 |
| 20260504214028 | 82 | 303 | 2.0 | 0.0 | 0.00 | 0.00 | 0.00 | 35 | 1010.1 |
| 20260504213036 | 81 | 255 | 3.0 | 0.0 | 0.00 | 0.00 | 0.00 | 38 | 1010.2 |
| 20260504212043 | 80 | 120 | 2.0 | 0.0 | 0.00 | 0.00 | 0.00 | 37 | 1010.0 |
| 20260504211033 | 81 | 323 | 2.0 | 0.0 | 0.00 | 0.00 | 0.00 | 40 | 1010.1 |
| 20260504205120 | 80 | 226 | 2.0 | 0.0 | 0.00 | 0.00 | 0.00 | 40 | 1010.3 |
| 20260504204033 | 78 | 131 | 3.0 | 0.0 | 0.00 | 0.00 | 0.00 | 42 | 1010.3 |
| 20260504203043 | 80 | 262 | 2.0 | 0.0 | 0.00 | 0.00 | 0.00 | 39 | 1010.2 |
| 20260504202058 | 80 | 109 | 2.0 | 0.0 | 0.00 | 0.00 | 0.00 | 39 | 1010.4 |
| 20260504201030 | 78 | 122 | 2.0 | 0.0 | 0.00 | 0.00 | 0.00 | 39 | 1010.4 |
| 20260504200042 | 78 | 147 | 2.0 | 0.0 | 0.00 | 0.00 | 0.00 | 40 | 1010.4 |
| 20260504195053 | 79 | 256 | 2.0 | 0.0 | 0.00 | 0.00 | 0.00 | 40 | 1010.4 |
| 20260504194046 | 80 | 248 | 2.0 | 0.0 | 0.00 | 0.00 | 0.00 | 41 | 1010.4 |
| 20260504193033 | 79 | 259 | 3.0 | 0.0 | 0.00 | 0.00 | 0.00 | 39 | 1010.6 |
| 20260504192033 | 77 | 144 | 2.0 | 0.0 | 0.00 | 0.00 | 0.00 | 41 | 1010.5 |
| 20260504191036 | 79 | 119 | 2.0 | 0.0 | 0.00 | 0.00 | 0.00 | 43 | 1010.5 |
| 20260504190039 | 77 | 284 | 2.0 | 0.0 | 0.00 | 0.00 | 0.00 | 45 | 1010.7 |
| 20260504185101 | 76 | 135 | 2.0 | 0.0 | 0.00 | 0.00 | 0.00 | 43 | 1010.6 |
| 20260504184049 | 77 | 293 | 2.0 | 0.0 | 0.00 | 0.00 | 0.00 | 43 | 1010.7 |
| 20260504183050 | 76 | 149 | 2.0 | 0.0 | 0.00 | 0.00 | 0.00 | 43 | 1010.7 |
| 20260504182123 | 75 | 245 | 2.0 | 0.0 | 0.00 | 0.00 | 0.00 | 47 | 1010.6 |
| 20260504181106 | 76 | 262 | 2.0 | 0.0 | 0.00 | 0.00 | 0.00 | 46 | 1010.6 |
| 20260504180051 | 75 | 269 | 2.0 | 0.0 | 0.00 | 0.00 | 0.00 | 46 | 1010.7 |
| 20260504175051 | 75 | 254 | 2.0 | 0.0 | 0.00 | 0.00 | 0.00 | 47 | 1010.7 |
| 20260504174044 | 73 | 252 | 2.0 | 0.0 | 0.00 | 0.00 | 0.00 | 47 | 1010.7 |
| 20260504173029 | 74 | 148 | 2.0 | 0.0 | 0.00 | 0.00 | 0.00 | 49 | 1010.7 |
| 20260504172047 | 73 | 321 | 1.0 | 0.0 | 0.00 | 0.00 | 0.00 | 50 | 1010.7 |
| 20260504171048 | 72 | 114 | 2.0 | 0.0 | 0.00 | 0.00 | 0.00 | 50 | 1010.6 |